Wesel-Römerwardt Airfield

EDLX · North Rhine-Westphalia, 德国

罗盘
风向 的 风向 290° Wesel-Römerwardt Airport 8/26
风: 9 kt, 3 beaufort

8 kt

4 kt
改变
0 ft 1.000 2.000 3.000 4.000 5.000
Cloud Cloud
FEW 2.900
METAR EDDL 301820Z AUTO 29009KT 9999 FEW029 06/02 Q1022 NOSIG

METAR Wesel-Römerwardt Airport - EDLX

Wesel-Römerwardt Airport是,德国中的小机场。 该机场有一条跑道: 8/26. 该领域的国际民航组织标志是EDLX.

这份报告是针对2023年1月30日 19:20, 当地时间在Düsseldorf Airport进行的。

机场观察

风向为290°,速度为9 kt。

可见度为10 km 或者更多。

有几云在2.900 ft的高度。 没有观察到天花板。

温度为6 °C,阵风为1 °C。 露点为2 °C,相对湿度为76%。 海平面上的气压为1022 hPa (QNH)。

白天

今天,太阳从08:15升起,在17:18降落。 这适用于Wesel-Römerwardt Airport,世界夏令时可能有所不同。 当地时间与世界标准时间之间的时差为+1 小时。 当前,没有夏令时有效。

公司介绍

我们没有关于这个机场的公司信息。

体会

到Vliegles.nl去找飞行课程,跳伞和其他飞行体验。 浏览页面,了解Wesel-Römerwardt Airport附近所有可用的活动。 你也可以使用搜索功能来寻找你所在地附近的特定飞行课程、跳伞或其他飞行体验。

跑道

Id 标题 侧风 逆风 侧风 %
8/26 084°-264° 4 kt 8 kt 44 %

逆风成分最大的方向会被突出显示,并用于横风计算。 这并不一定意味着这个方向在使用。

乌云

2.900 ft FEW 几云

温度 & 天气

温度 6 °C
露点 2 °C
相对湿度 76%
风寒 1 °C
Kp-index 0 (0-9)

白天

日出
08:13 (12:45)
中午
12:46
日落
17:18

小工具

你想在你的网站上有一个关于Wesel-Römerwardt Airport的当前航空天气(METAR)的小部件吗?

显示HTML代码

我们和第三方通过cookies跟踪您在我们网站上的互联网行为。如果你继续,我们认为你同意我们的饼干政策